createdAt,value
2022-09-22T00:01:39.372Z,12.30
2022-09-22T00:04:41.050Z,4.57
2022-09-22T00:07:42.745Z,5.33
2022-09-22T00:10:44.387Z,8.87
2022-09-22T00:13:52.068Z,3.80
2022-09-22T00:16:58.568Z,4.43
2022-09-22T00:20:00.354Z,7.60
2022-09-22T00:23:02.092Z,3.53
2022-09-22T00:26:09.250Z,5.03
2022-09-22T00:29:11.667Z,4.13
2022-09-22T00:32:14.242Z,5.20
2022-09-22T00:35:15.968Z,3.27
2022-09-22T00:38:17.600Z,4.23
2022-09-22T00:41:25.848Z,3.57
2022-09-22T00:44:32.490Z,2.30
2022-09-22T00:47:38.737Z,1.83
2022-09-22T00:50:40.982Z,5.23
2022-09-22T00:53:45.037Z,3.03
2022-09-22T00:57:06.782Z,3.90
2022-09-22T01:00:10.767Z,6.60
2022-09-22T01:03:16.708Z,3.70
2022-09-22T01:06:23.283Z,4.23
2022-09-22T01:09:26.108Z,3.00
2022-09-22T01:12:30.836Z,4.17
2022-09-22T01:16:01.869Z,4.63
2022-09-22T01:19:25.813Z,3.50
2022-09-22T01:22:49.690Z,4.50
2022-09-22T01:26:18.672Z,2.33
2022-09-22T01:29:35.500Z,2.23
2022-09-22T01:32:46.059Z,1.70
2022-09-22T01:36:00.925Z,2.77
2022-09-22T01:39:10.297Z,3.07
2022-09-22T01:42:23.517Z,2.03
2022-09-22T01:45:32.095Z,3.20
2022-09-22T01:48:36.643Z,1.60
2022-09-22T01:51:51.724Z,2.90
2022-09-22T01:54:59.477Z,2.27
2022-09-22T01:58:18.463Z,2.97
2022-09-22T02:01:29.239Z,1.43
2022-09-22T02:04:39.373Z,9.77
2022-09-22T02:07:45.752Z,2.23
2022-09-22T02:10:48.592Z,4.07
2022-09-22T02:13:50.874Z,3.20
2022-09-22T02:16:54.188Z,1.37
2022-09-22T02:19:56.380Z,2.20
2022-09-22T02:22:58.043Z,3.50
2022-09-22T02:26:02.780Z,2.13
2022-09-22T02:29:10.916Z,2.43
2022-09-22T02:32:16.702Z,5.57
2022-09-22T02:35:18.402Z,1.87
2022-09-22T02:38:25.950Z,5.77
2022-09-22T02:41:42.982Z,1.40
2022-09-22T02:45:04.648Z,2.23
2022-09-22T02:48:12.036Z,1.33
2022-09-22T02:51:15.219Z,2.40
2022-09-22T02:54:17.028Z,1.37
2022-09-22T02:57:18.734Z,2.23
2022-09-22T03:00:20.896Z,2.13
2022-09-22T03:03:22.652Z,2.30
2022-09-22T03:06:24.285Z,4.40
2022-09-22T03:09:25.970Z,2.30
2022-09-22T03:12:27.664Z,1.80
2022-09-22T03:15:29.751Z,3.50
2022-09-22T03:18:31.477Z,2.10
2022-09-22T03:21:33.133Z,2.33
2022-09-22T03:24:34.805Z,1.83
2022-09-22T03:27:37.274Z,1.10
2022-09-22T03:30:40.291Z,2.10
2022-09-22T03:33:42.064Z,1.33
2022-09-22T03:36:43.856Z,3.90
2022-09-22T03:39:45.505Z,3.23
2022-09-22T03:42:47.164Z,1.47
2022-09-22T03:45:48.890Z,2.00
2022-09-22T03:48:50.869Z,2.33
2022-09-22T03:51:53.895Z,2.20
2022-09-22T03:54:55.537Z,3.80
2022-09-22T03:57:57.193Z,3.00
2022-09-22T04:00:58.922Z,2.63
2022-09-22T04:04:00.692Z,2.47
2022-09-22T04:07:07.054Z,2.20
2022-09-22T04:10:09.432Z,4.30
2022-09-22T04:13:11.751Z,7.47
2022-09-22T04:16:13.578Z,7.33
2022-09-22T04:19:15.508Z,8.73
2022-09-22T04:22:17.140Z,7.63
2022-09-22T04:25:19.272Z,7.53
2022-09-22T04:28:20.933Z,6.97
2022-09-22T04:31:22.987Z,7.03
2022-09-22T04:34:24.671Z,6.57
2022-09-22T04:37:26.356Z,5.17
2022-09-22T04:40:28.171Z,5.43
2022-09-22T04:43:29.854Z,6.13
2022-09-22T04:46:31.555Z,6.67
2022-09-22T04:49:33.254Z,6.20
2022-09-22T04:52:34.906Z,4.63
2022-09-22T04:55:36.628Z,5.90
2022-09-22T04:58:38.291Z,5.03
2022-09-22T05:01:40.056Z,5.80
2022-09-22T05:04:41.755Z,5.00
2022-09-22T05:07:46.125Z,5.80
2022-09-22T05:10:47.819Z,6.10
2022-09-22T05:13:50.826Z,5.57
2022-09-22T05:16:52.831Z,5.57
2022-09-22T05:19:55.689Z,3.23
2022-09-22T05:22:57.402Z,4.37
2022-09-22T05:25:59.130Z,7.20
2022-09-22T05:29:00.793Z,8.13
2022-09-22T05:32:02.696Z,4.97
2022-09-22T05:35:04.877Z,5.17
2022-09-22T05:38:06.589Z,3.37
2022-09-22T05:41:08.537Z,4.47
2022-09-22T05:44:10.245Z,3.87
2022-09-22T05:47:11.914Z,3.93
2022-09-22T05:50:15.412Z,7.23
2022-09-22T05:53:17.114Z,5.77
2022-09-22T05:56:18.815Z,4.07
2022-09-22T05:59:20.480Z,4.93
2022-09-22T06:02:26.829Z,7.43
2022-09-22T06:05:28.694Z,5.33
2022-09-22T06:08:31.014Z,7.33
2022-09-22T06:11:32.833Z,4.80
2022-09-22T06:14:35.539Z,4.97
2022-09-22T06:17:37.213Z,5.60
2022-09-22T06:20:39.308Z,5.83
2022-09-22T06:23:43.016Z,8.17
2022-09-22T06:26:45.718Z,7.60
2022-09-22T06:29:47.403Z,4.37
2022-09-22T06:32:54.441Z,4.83
2022-09-22T06:35:58.051Z,5.53
2022-09-22T06:38:59.975Z,4.83
2022-09-22T06:42:01.765Z,4.60
2022-09-22T06:45:05.043Z,4.27
2022-09-22T06:48:09.973Z,5.00
2022-09-22T06:51:14.075Z,4.90
2022-09-22T06:54:15.917Z,5.80
2022-09-22T06:57:18.424Z,6.23
2022-09-22T07:00:20.108Z,7.17
2022-09-22T07:03:26.136Z,5.73
2022-09-22T07:06:27.927Z,6.90
2022-09-22T07:09:31.664Z,5.77
2022-09-22T07:12:34.017Z,5.90
2022-09-22T07:15:36.501Z,5.83
2022-09-22T07:18:44.083Z,5.20
2022-09-22T07:21:47.546Z,8.07
2022-09-22T07:24:49.241Z,8.30
2022-09-22T07:27:51.323Z,9.10
2022-09-22T07:30:53.020Z,7.27
2022-09-22T07:33:55.279Z,4.67
2022-09-22T07:36:57.786Z,7.53
2022-09-22T07:40:00.845Z,7.50
2022-09-22T07:43:02.550Z,11.07
2022-09-22T07:46:05.067Z,10.40
2022-09-22T07:49:07.065Z,9.47
2022-09-22T07:52:09.868Z,7.97
2022-09-22T07:55:11.609Z,8.00
2022-09-22T07:58:17.267Z,5.43
2022-09-22T08:01:22.116Z,6.47
2022-09-22T08:04:24.188Z,5.87
2022-09-22T08:07:25.861Z,7.20
2022-09-22T08:10:27.816Z,6.83
2022-09-22T08:13:29.636Z,7.37
2022-09-22T08:16:33.951Z,11.23
2022-09-22T08:19:36.639Z,6.33
2022-09-22T08:22:39.071Z,5.17
2022-09-22T08:25:40.793Z,6.83
2022-09-22T08:28:42.599Z,4.47
2022-09-22T08:31:47.829Z,12.63
2022-09-22T08:34:51.557Z,4.80
2022-09-22T08:37:53.333Z,6.70
2022-09-22T08:41:15.272Z,7.67
2022-09-22T08:44:22.886Z,8.70
2022-09-22T08:47:59.928Z,5.77
2022-09-22T08:51:51.622Z,5.23
2022-09-22T08:54:59.390Z,6.60
2022-09-22T08:58:11.749Z,6.13
2022-09-22T09:01:54.604Z,3.00
2022-09-22T09:05:03.624Z,4.57
2022-09-22T09:08:35.677Z,8.67
2022-09-22T09:11:54.325Z,1.73
2022-09-22T09:15:24.232Z,6.10
2022-09-22T09:18:33.775Z,2.27
2022-09-22T09:21:39.264Z,2.17
2022-09-22T09:28:22.056Z,2.80
2022-09-22T09:31:33.674Z,3.47
2022-09-22T09:34:35.406Z,2.37
2022-09-22T09:37:37.304Z,4.43
2022-09-22T09:40:39.142Z,4.73
2022-09-22T09:43:45.468Z,2.20
2022-09-22T09:47:13.477Z,4.73
2022-09-22T09:50:15.804Z,3.80
2022-09-22T09:53:42.873Z,2.77
2022-09-22T09:57:19.516Z,2.07
2022-09-22T10:00:33.740Z,3.67
2022-09-22T10:03:42.499Z,3.10
2022-09-22T10:06:45.120Z,1.90
2022-09-22T10:09:49.525Z,2.00
2022-09-22T10:12:51.253Z,1.97
2022-09-22T10:16:15.559Z,2.70
2022-09-22T10:19:22.329Z,3.03
2022-09-22T10:22:28.420Z,3.00
2022-09-22T10:25:33.906Z,2.87
2022-09-22T10:28:36.306Z,5.83
2022-09-22T10:31:42.078Z,1.08
2022-09-22T10:34:51.295Z,4.25
2022-09-22T10:37:57.969Z,1.77
2022-09-22T10:41:07.804Z,2.22
2022-09-22T10:44:40.376Z,5.15
2022-09-22T10:47:51.266Z,3.38
2022-09-22T10:51:07.193Z,3.17
2022-09-22T10:54:15.094Z,2.55
2022-09-22T10:57:38.051Z,1.67
2022-09-22T11:00:41.524Z,2.88
2022-09-22T11:03:55.034Z,2.45
2022-09-22T11:07:47.359Z,2.30
2022-09-22T11:11:26.675Z,4.17
2022-09-22T11:14:50.211Z,1.53
2022-09-22T11:18:19.165Z,3.33
2022-09-22T11:21:20.854Z,2.77
2022-09-22T11:24:59.268Z,1.37
2022-09-22T11:28:04.073Z,4.70
2022-09-22T11:31:06.230Z,3.50
2022-09-22T11:34:17.307Z,1.40
2022-09-22T11:37:54.110Z,1.30
2022-09-22T11:41:26.673Z,1.57
2022-09-22T11:44:38.815Z,3.57
2022-09-22T11:47:53.737Z,4.60
2022-09-22T11:51:35.690Z,3.03
2022-09-22T11:55:11.927Z,3.23
2022-09-22T11:58:24.676Z,3.70
2022-09-22T12:01:31.759Z,1.63
2022-09-22T12:04:42.351Z,4.50
2022-09-22T12:08:11.647Z,2.27
2022-09-22T12:11:16.199Z,1.60
2022-09-22T12:14:17.988Z,1.30
2022-09-22T12:17:32.595Z,1.00
2022-09-22T12:20:49.237Z,1.50
2022-09-22T12:23:52.076Z,2.57
2022-09-22T12:26:53.932Z,6.17
2022-09-22T12:30:19.952Z,2.17
2022-09-22T12:33:22.257Z,1.50
2022-09-22T12:36:42.511Z,0.70
2022-09-22T12:39:47.135Z,1.27
2022-09-22T12:42:51.696Z,4.93
2022-09-22T12:45:56.234Z,1.83
2022-09-22T12:48:58.048Z,3.30
2022-09-22T12:52:00.003Z,1.43
2022-09-22T12:55:29.372Z,1.43
2022-09-22T12:58:30.960Z,2.73
2022-09-22T13:01:34.458Z,2.77
2022-09-22T13:04:36.260Z,1.93
2022-09-22T13:07:45.269Z,3.50
2022-09-22T13:10:55.950Z,3.83
2022-09-22T13:13:57.748Z,2.93
2022-09-22T13:16:59.439Z,2.30
2022-09-22T13:20:15.155Z,1.80
2022-09-22T13:23:16.830Z,4.80
2022-09-22T13:26:20.455Z,2.77
2022-09-22T13:29:22.412Z,1.93
2022-09-22T13:32:26.870Z,2.50
2022-09-22T13:35:40.605Z,0.57
2022-09-22T13:38:52.937Z,1.10
2022-09-22T13:41:59.532Z,2.03
2022-09-22T13:45:08.701Z,1.93
2022-09-22T13:48:15.327Z,1.27
2022-09-22T13:51:17.705Z,1.47
2022-09-22T13:54:24.006Z,1.50
2022-09-22T13:57:29.712Z,1.03
2022-09-22T14:01:11.509Z,1.83
2022-09-22T14:04:26.229Z,2.27
2022-09-22T14:07:30.682Z,4.10
2022-09-22T14:10:33.615Z,1.13
2022-09-22T14:13:43.016Z,1.80
2022-09-22T14:17:05.726Z,2.37
2022-09-22T14:20:09.488Z,2.30
2022-09-22T14:23:16.672Z,3.67
2022-09-22T14:26:27.563Z,1.40
2022-09-22T14:29:29.152Z,1.63
2022-09-22T14:32:38.436Z,0.60
2022-09-22T14:35:41.539Z,12.30
2022-09-22T14:38:50.675Z,1.73
2022-09-22T14:42:11.913Z,1.20
2022-09-22T14:45:13.527Z,3.77
2022-09-22T14:48:20.600Z,1.03
2022-09-22T14:51:25.862Z,0.83
2022-09-22T14:54:31.838Z,1.43
2022-09-22T14:57:34.985Z,0.67
2022-09-22T15:00:55.274Z,1.80
2022-09-22T15:04:04.992Z,0.97
2022-09-22T15:07:29.040Z,0.93
2022-09-22T15:10:32.611Z,1.23
2022-09-22T15:13:45.686Z,0.60
2022-09-22T15:16:47.383Z,7.93
2022-09-22T15:19:59.319Z,0.60
2022-09-22T15:23:02.438Z,1.50
2022-09-22T15:26:04.898Z,0.97
2022-09-22T15:29:06.539Z,0.80
2022-09-22T15:32:08.186Z,1.07
2022-09-22T15:35:10.120Z,2.00
2022-09-22T15:38:37.461Z,0.50
2022-09-22T15:41:39.105Z,3.17
2022-09-22T15:44:41.043Z,1.50
2022-09-22T15:47:44.747Z,1.33
2022-09-22T15:50:46.474Z,0.53
2022-09-22T15:53:48.093Z,1.00
2022-09-22T15:56:53.712Z,1.37
2022-09-22T15:59:55.778Z,1.40
2022-09-22T16:02:57.757Z,1.13
2022-09-22T16:06:04.352Z,1.53
2022-09-22T16:09:06.153Z,0.90
2022-09-22T16:12:11.935Z,1.10
2022-09-22T16:15:14.246Z,2.00
2022-09-22T16:18:16.102Z,2.83
2022-09-22T16:21:23.485Z,4.33
2022-09-22T16:24:27.887Z,0.63
2022-09-22T16:27:29.847Z,0.70
2022-09-22T16:30:31.472Z,2.30
2022-09-22T16:33:33.127Z,3.33
2022-09-22T16:36:36.227Z,5.33
2022-09-22T16:39:37.888Z,2.30
2022-09-22T16:42:39.679Z,7.57
2022-09-22T16:45:59.951Z,3.80
2022-09-22T16:49:05.553Z,1.73
2022-09-22T16:52:10.212Z,1.40
2022-09-22T16:55:12.285Z,5.00
2022-09-22T16:58:14.120Z,5.97
2022-09-22T17:01:19.654Z,5.27
2022-09-22T17:04:21.849Z,4.03
2022-09-22T17:07:24.250Z,0.97
2022-09-22T17:10:25.875Z,5.30
2022-09-22T17:13:31.657Z,5.53
2022-09-22T17:16:51.959Z,1.63
2022-09-22T17:19:54.917Z,3.63
2022-09-22T17:22:57.152Z,2.47
2022-09-22T17:25:58.836Z,5.87
2022-09-22T17:29:01.331Z,2.37
2022-09-22T17:32:05.690Z,7.33
2022-09-22T17:35:11.640Z,4.97
2022-09-22T17:38:13.293Z,10.60
2022-09-22T17:41:19.637Z,3.30
2022-09-22T17:44:21.725Z,5.10
2022-09-22T17:47:42.284Z,4.00
2022-09-22T17:51:08.492Z,6.57
2022-09-22T18:01:20.634Z,18.70
2022-09-22T18:04:22.310Z,16.10
2022-09-22T18:07:25.991Z,15.27
2022-09-22T18:10:32.404Z,16.37
2022-09-22T18:13:39.015Z,18.27
2022-09-22T18:16:42.257Z,12.03
2022-09-22T18:19:44.084Z,16.77
2022-09-22T18:22:49.045Z,11.30
2022-09-22T18:25:51.295Z,14.33
2022-09-22T18:28:53.870Z,16.27
2022-09-22T18:31:56.140Z,8.63
2022-09-22T18:34:57.779Z,8.00
2022-09-22T18:37:59.424Z,13.07
2022-09-22T18:41:01.104Z,13.10
2022-09-22T18:44:06.331Z,13.30
2022-09-22T18:47:12.977Z,15.03
2022-09-22T18:50:14.744Z,13.97
2022-09-22T18:53:19.115Z,10.37
2022-09-22T18:56:25.110Z,14.33
2022-09-22T18:59:27.422Z,9.33
2022-09-22T19:02:30.314Z,9.00
2022-09-22T19:05:32.119Z,3.03
2022-09-22T19:08:33.900Z,3.37
2022-09-22T19:11:35.527Z,3.27
2022-09-22T19:14:38.907Z,4.83
2022-09-22T19:17:44.956Z,2.90
2022-09-22T19:20:46.834Z,3.03
2022-09-22T19:23:48.918Z,1.37
2022-09-22T19:26:52.314Z,4.87
2022-09-22T19:29:54.035Z,3.23
2022-09-22T19:32:55.855Z,4.87
2022-09-22T19:35:57.800Z,6.60
2022-09-22T19:38:59.544Z,2.00
2022-09-22T19:42:01.594Z,1.63
2022-09-22T19:45:04.100Z,2.33
2022-09-22T19:48:05.765Z,3.37
2022-09-22T19:51:07.428Z,4.10
2022-09-22T19:54:09.399Z,3.17
2022-09-22T19:57:11.088Z,3.87
2022-09-22T20:00:25.473Z,3.93
2022-09-22T20:03:27.216Z,3.07
2022-09-22T20:06:28.981Z,2.97
2022-09-22T20:09:30.877Z,4.50
2022-09-22T20:12:32.557Z,10.07
2022-09-22T20:15:35.275Z,7.50
2022-09-22T20:18:41.220Z,9.20
2022-09-22T20:21:45.190Z,7.73
2022-09-22T20:24:53.787Z,5.93
2022-09-22T20:27:56.115Z,9.20
2022-09-22T20:30:57.823Z,6.20
2022-09-22T20:33:59.652Z,6.13
2022-09-22T20:37:01.492Z,5.73
2022-09-22T20:40:03.319Z,8.47
2022-09-22T20:43:06.176Z,6.40
2022-09-22T20:46:09.316Z,6.13
2022-09-22T20:49:13.365Z,7.63
2022-09-22T20:52:16.043Z,8.17
2022-09-22T20:55:17.768Z,6.37
2022-09-22T20:58:19.718Z,9.13
2022-09-22T21:01:21.445Z,9.57
2022-09-22T21:04:23.278Z,11.73
2022-09-22T21:07:25.045Z,12.90
2022-09-22T21:10:35.860Z,10.87
2022-09-22T21:13:37.730Z,12.07
2022-09-22T21:16:39.417Z,7.73
2022-09-22T21:19:41.222Z,7.73
2022-09-22T21:22:45.027Z,9.27
2022-09-22T21:25:56.952Z,4.80
2022-09-22T21:28:59.430Z,6.57
2022-09-22T21:32:01.725Z,4.40
2022-09-22T21:35:03.585Z,2.87
2022-09-22T21:38:05.271Z,5.40
2022-09-22T21:41:09.692Z,3.10
2022-09-22T21:44:11.396Z,8.53
2022-09-22T21:47:13.121Z,2.63
2022-09-22T21:50:14.961Z,2.47
2022-09-22T21:53:16.653Z,1.73
2022-09-22T21:56:20.056Z,5.77
2022-09-22T21:59:21.755Z,5.00
2022-09-22T22:02:26.261Z,5.43
2022-09-22T22:05:30.132Z,6.20
2022-09-22T22:08:37.059Z,8.33
2022-09-22T22:11:43.710Z,7.77
2022-09-22T22:14:47.366Z,8.80
2022-09-22T22:17:48.976Z,10.27
2022-09-22T22:20:57.889Z,7.87
2022-09-22T22:24:22.485Z,4.70
2022-09-22T22:27:24.165Z,3.57
2022-09-22T22:30:27.007Z,4.90
2022-09-22T22:33:28.847Z,4.93
2022-09-22T22:36:30.521Z,3.20
2022-09-22T22:39:32.482Z,3.17
2022-09-22T22:42:34.149Z,2.80
2022-09-22T22:45:35.751Z,2.33
2022-09-22T22:48:37.729Z,6.37
2022-09-22T22:51:42.766Z,4.03
2022-09-22T22:54:44.369Z,4.70
2022-09-22T22:57:45.995Z,3.80
2022-09-22T23:00:47.653Z,3.93
2022-09-22T23:03:54.832Z,1.73
2022-09-22T23:06:56.447Z,4.10
2022-09-22T23:10:06.863Z,4.43
2022-09-22T23:13:09.031Z,2.20
2022-09-22T23:16:14.186Z,2.13
2022-09-22T23:19:17.502Z,6.27
2022-09-22T23:22:22.442Z,3.13
2022-09-22T23:25:24.480Z,2.53
2022-09-22T23:28:26.416Z,2.90
2022-09-22T23:31:28.107Z,4.60
2022-09-22T23:34:29.711Z,2.33
2022-09-22T23:37:31.340Z,3.53
2022-09-22T23:40:34.526Z,3.17
2022-09-22T23:43:36.532Z,1.80
2022-09-22T23:46:38.456Z,2.63
2022-09-22T23:49:40.162Z,2.47
2022-09-22T23:52:41.776Z,2.50
2022-09-22T23:55:43.854Z,3.13
2022-09-22T23:58:46.441Z,2.47
